createdAt,value
2018-07-23T00:00:49.266Z,1009.36
2018-07-23T00:01:49.265Z,1009.35
2018-07-23T00:02:49.265Z,1009.35
2018-07-23T00:03:49.264Z,1009.31
2018-07-23T00:04:49.284Z,1009.31
2018-07-23T00:05:49.258Z,1009.35
2018-07-23T00:06:49.270Z,1009.37
2018-07-23T00:07:49.277Z,1009.33
2018-07-23T00:08:49.259Z,1009.32
2018-07-23T00:09:49.264Z,1009.32
2018-07-23T00:10:49.257Z,1009.32
2018-07-23T00:11:49.255Z,1009.31
2018-07-23T00:12:49.254Z,1009.29
2018-07-23T00:13:49.253Z,1009.30
2018-07-23T00:14:49.250Z,1009.28
2018-07-23T00:15:49.255Z,1009.27
2018-07-23T00:16:49.244Z,1009.29
2018-07-23T00:17:49.246Z,1009.29
2018-07-23T00:18:49.244Z,1009.28
2018-07-23T00:19:49.243Z,1009.27
2018-07-23T00:20:49.240Z,1009.28
2018-07-23T00:21:49.239Z,1009.30
2018-07-23T00:22:49.240Z,1009.29
2018-07-23T00:23:49.270Z,1009.26
2018-07-23T00:24:49.239Z,1009.27
2018-07-23T00:25:49.239Z,1009.25
2018-07-23T00:26:49.238Z,1009.25
2018-07-23T00:27:49.240Z,1009.26
2018-07-23T00:28:49.230Z,1009.29
2018-07-23T00:29:49.230Z,1009.26
2018-07-23T00:30:49.230Z,1009.29
2018-07-23T00:31:49.280Z,1009.27
2018-07-23T00:32:49.229Z,1009.29
2018-07-23T00:33:49.238Z,1009.26
2018-07-23T00:34:49.228Z,1009.24
2018-07-23T00:35:49.219Z,1009.24
2018-07-23T00:36:49.247Z,1009.27
2018-07-23T00:37:49.224Z,1009.28
2018-07-23T00:38:49.217Z,1009.27
2018-07-23T00:39:49.220Z,1009.24
2018-07-23T00:40:49.214Z,1009.25
2018-07-23T00:41:49.219Z,1009.25
2018-07-23T00:42:49.208Z,1009.30
2018-07-23T00:43:49.209Z,1009.33
2018-07-23T00:44:49.207Z,1009.31
2018-07-23T00:45:49.216Z,1009.30
2018-07-23T00:46:49.213Z,1009.27
2018-07-23T00:47:49.207Z,1009.31
2018-07-23T00:48:49.201Z,1009.29
2018-07-23T00:49:49.204Z,1009.34
2018-07-23T00:50:49.200Z,1009.31
2018-07-23T00:51:49.200Z,1009.28
2018-07-23T00:52:49.198Z,1009.28
2018-07-23T00:53:49.196Z,1009.29
2018-07-23T00:54:49.206Z,1009.25
2018-07-23T00:55:49.202Z,1009.28
2018-07-23T00:56:49.188Z,1009.30
2018-07-23T00:57:49.191Z,1009.25
2018-07-23T00:58:49.189Z,1009.25
2018-07-23T00:59:49.190Z,1009.24
2018-07-23T01:00:49.188Z,1009.26
2018-07-23T01:01:49.209Z,1009.25
2018-07-23T01:02:49.187Z,1009.27
2018-07-23T01:03:49.186Z,1009.25
2018-07-23T01:04:49.180Z,1009.31
2018-07-23T01:05:49.193Z,1009.28
2018-07-23T01:06:49.176Z,1009.29
2018-07-23T01:07:49.173Z,1009.24
2018-07-23T01:08:49.172Z,1009.28
2018-07-23T01:09:49.169Z,1009.32
2018-07-23T01:10:49.169Z,1009.29
2018-07-23T01:11:49.167Z,1009.31
2018-07-23T01:12:49.168Z,1009.31
2018-07-23T01:13:49.167Z,1009.34
2018-07-23T01:14:49.163Z,1009.33
2018-07-23T01:15:49.168Z,1009.35
2018-07-23T01:16:49.160Z,1009.36
2018-07-23T01:17:49.159Z,1009.38
2018-07-23T01:18:49.155Z,1009.34
2018-07-23T01:19:49.157Z,1009.35
2018-07-23T01:20:49.152Z,1009.31
2018-07-23T01:21:49.151Z,1009.31
2018-07-23T01:22:49.149Z,1009.33
2018-07-23T01:23:49.180Z,1009.30
2018-07-23T01:24:49.145Z,1009.31
2018-07-23T01:25:49.143Z,1009.33
2018-07-23T01:26:49.144Z,1009.33
2018-07-23T01:27:49.140Z,1009.34
2018-07-23T01:28:49.141Z,1009.32
2018-07-23T01:29:49.137Z,1009.34
2018-07-23T01:30:49.145Z,1009.35
2018-07-23T01:31:49.136Z,1009.38
2018-07-23T01:32:49.128Z,1009.34
2018-07-23T01:33:50.101Z,1009.40
2018-07-23T01:34:49.127Z,1009.38
2018-07-23T01:35:49.127Z,1009.33
2018-07-23T01:36:49.150Z,1009.37
2018-07-23T01:37:49.123Z,1009.35
2018-07-23T01:38:49.132Z,1009.36
2018-07-23T01:39:49.118Z,1009.36
2018-07-23T01:40:49.121Z,1009.34
2018-07-23T01:41:49.117Z,1009.34
2018-07-23T01:42:49.112Z,1009.33
2018-07-23T01:43:49.126Z,1009.30
2018-07-23T01:44:49.114Z,1009.34
2018-07-23T01:45:49.109Z,1009.34
2018-07-23T01:46:49.115Z,1009.34
2018-07-23T01:47:49.106Z,1009.35
2018-07-23T01:48:49.105Z,1009.35
2018-07-23T01:49:49.104Z,1009.37
2018-07-23T01:50:49.100Z,1009.38
2018-07-23T01:51:49.100Z,1009.34
2018-07-23T01:52:49.099Z,1009.33
2018-07-23T01:53:49.096Z,1009.33
2018-07-23T01:54:49.099Z,1009.31
2018-07-23T01:55:49.093Z,1009.32
2018-07-23T01:56:49.092Z,1009.34
2018-07-23T01:57:49.094Z,1009.37
2018-07-23T01:58:49.087Z,1009.34
2018-07-23T01:59:49.090Z,1009.35
2018-07-23T02:00:49.085Z,1009.36
2018-07-23T02:01:49.084Z,1009.37
2018-07-23T02:02:49.123Z,1009.40
2018-07-23T02:03:49.082Z,1009.37
2018-07-23T02:04:49.078Z,1009.38
2018-07-23T02:05:49.077Z,1009.39
2018-07-23T02:06:49.092Z,1009.37
2018-07-23T02:07:49.076Z,1009.38
2018-07-23T02:08:49.074Z,1009.38
2018-07-23T02:09:49.072Z,1009.37
2018-07-23T02:10:49.067Z,1009.35
2018-07-23T02:11:49.067Z,1009.39
2018-07-23T02:12:49.062Z,1009.39
2018-07-23T02:13:49.065Z,1009.39
2018-07-23T02:14:49.058Z,1009.40
2018-07-23T02:15:49.066Z,1009.42
2018-07-23T02:16:49.061Z,1009.40
2018-07-23T02:17:49.057Z,1009.41
2018-07-23T02:18:49.074Z,1009.43
2018-07-23T02:19:49.054Z,1009.40
2018-07-23T02:20:49.053Z,1009.41
2018-07-23T02:21:49.050Z,1009.43
2018-07-23T02:22:49.050Z,1009.39
2018-07-23T02:23:49.049Z,1009.42
2018-07-23T02:24:49.044Z,1009.40
2018-07-23T02:25:49.049Z,1009.42
2018-07-23T02:26:49.045Z,1009.43
2018-07-23T02:27:49.065Z,1009.46
2018-07-23T02:28:49.041Z,1009.44
2018-07-23T02:29:49.037Z,1009.47
2018-07-23T02:30:49.044Z,1009.50
2018-07-23T02:31:49.038Z,1009.49
2018-07-23T02:32:49.038Z,1009.51
2018-07-23T02:33:49.034Z,1009.51
2018-07-23T02:34:49.032Z,1009.50
2018-07-23T02:35:49.027Z,1009.48
2018-07-23T02:36:49.026Z,1009.48
2018-07-23T02:37:49.024Z,1009.51
2018-07-23T02:38:49.022Z,1009.50
2018-07-23T02:39:49.023Z,1009.47
2018-07-23T02:40:49.024Z,1009.52
2018-07-23T02:41:49.018Z,1009.50
2018-07-23T02:42:49.050Z,1009.48
2018-07-23T02:43:49.021Z,1009.48
2018-07-23T02:44:49.014Z,1009.51
2018-07-23T02:45:49.012Z,1009.47
2018-07-23T02:46:49.012Z,1009.47
2018-07-23T02:47:49.053Z,1009.47
2018-07-23T02:48:49.008Z,1009.48
2018-07-23T02:49:49.020Z,1009.51
2018-07-23T02:50:49.003Z,1009.51
2018-07-23T02:51:49.001Z,1009.51
2018-07-23T02:52:49.015Z,1009.55
2018-07-23T02:53:49.005Z,1009.52
2018-07-23T02:54:49.015Z,1009.54
2018-07-23T02:55:48.992Z,1009.54
2018-07-23T02:56:48.991Z,1009.57
2018-07-23T02:57:48.991Z,1009.58
2018-07-23T02:58:48.990Z,1009.59
2018-07-23T02:59:48.988Z,1009.60
2018-07-23T03:00:48.987Z,1009.61
2018-07-23T03:01:49.007Z,1009.61
2018-07-23T03:02:48.981Z,1009.63
2018-07-23T03:03:48.995Z,1009.61
2018-07-23T03:04:48.982Z,1009.60
2018-07-23T03:05:48.975Z,1009.59
2018-07-23T03:06:48.977Z,1009.63
2018-07-23T03:07:48.971Z,1009.58
2018-07-23T03:08:48.971Z,1009.57
2018-07-23T03:09:48.970Z,1009.57
2018-07-23T03:10:48.967Z,1009.58
2018-07-23T03:11:48.965Z,1009.55
2018-07-23T03:12:48.961Z,1009.56
2018-07-23T03:13:48.963Z,1009.59
2018-07-23T03:14:48.959Z,1009.64
2018-07-23T03:15:48.957Z,1009.63
2018-07-23T03:16:49.006Z,1009.64
2018-07-23T03:17:48.957Z,1009.61
2018-07-23T03:18:48.951Z,1009.63
2018-07-23T03:19:48.950Z,1009.61
2018-07-23T03:20:48.949Z,1009.64
2018-07-23T03:21:49.017Z,1009.67
2018-07-23T03:22:48.958Z,1009.66
2018-07-23T03:23:48.939Z,1009.66
2018-07-23T03:24:48.941Z,1009.66
2018-07-23T03:25:48.941Z,1009.68
2018-07-23T03:26:48.940Z,1009.67
2018-07-23T03:27:48.934Z,1009.69
2018-07-23T03:28:48.933Z,1009.73
2018-07-23T03:29:48.932Z,1009.72
2018-07-23T03:30:48.929Z,1009.71
2018-07-23T03:31:48.954Z,1009.74
2018-07-23T03:32:48.926Z,1009.76
2018-07-23T03:33:48.925Z,1009.76
2018-07-23T03:34:48.917Z,1009.75
2018-07-23T03:35:48.916Z,1009.77
2018-07-23T03:36:48.916Z,1009.80
2018-07-23T03:37:48.915Z,1009.80
2018-07-23T03:38:48.913Z,1009.80
2018-07-23T03:39:48.908Z,1009.87
2018-07-23T03:40:48.911Z,1009.89
2018-07-23T03:41:48.937Z,1009.87
2018-07-23T03:42:48.908Z,1009.85
2018-07-23T03:43:48.903Z,1009.87
2018-07-23T03:44:48.897Z,1009.88
2018-07-23T03:45:48.927Z,1009.85
2018-07-23T03:46:48.900Z,1009.89
2018-07-23T03:47:48.891Z,1009.91
2018-07-23T03:48:48.890Z,1009.89
2018-07-23T03:49:48.891Z,1009.89
2018-07-23T03:50:48.885Z,1009.92
2018-07-23T03:51:48.910Z,1009.94
2018-07-23T03:52:48.900Z,1009.94
2018-07-23T03:53:48.891Z,1009.92
2018-07-23T03:54:48.896Z,1009.94
2018-07-23T03:55:48.878Z,1009.93
2018-07-23T03:56:48.873Z,1009.92
2018-07-23T03:57:48.871Z,1010.01
2018-07-23T03:58:48.871Z,1009.99
2018-07-23T03:59:48.868Z,1010.03
2018-07-23T04:00:48.880Z,1010.04
2018-07-23T04:01:48.867Z,1010.04
2018-07-23T04:02:48.858Z,1010.06
2018-07-23T04:03:48.884Z,1010.09
2018-07-23T04:04:48.854Z,1010.06
2018-07-23T04:05:48.880Z,1010.05
2018-07-23T04:06:48.854Z,1010.09
2018-07-23T04:07:48.853Z,1010.06
2018-07-23T04:08:48.850Z,1010.06
2018-07-23T04:09:48.846Z,1010.07
2018-07-23T04:10:48.857Z,1010.09
2018-07-23T04:11:48.843Z,1010.11
2018-07-23T04:12:48.842Z,1010.08
2018-07-23T04:13:48.842Z,1010.10
2018-07-23T04:14:48.837Z,1010.10
2018-07-23T04:15:48.837Z,1010.13
2018-07-23T04:16:48.829Z,1010.10
2018-07-23T04:17:48.857Z,1010.12
2018-07-23T04:18:48.827Z,1010.15
2018-07-23T04:19:48.843Z,1010.12
2018-07-23T04:20:48.865Z,1010.15
2018-07-23T04:21:48.829Z,1010.15
2018-07-23T04:22:48.817Z,1010.16
2018-07-23T04:23:48.816Z,1010.15
2018-07-23T04:24:48.816Z,1010.16
2018-07-23T04:25:48.810Z,1010.15
2018-07-23T04:26:48.807Z,1010.11
2018-07-23T04:27:48.821Z,1010.13
2018-07-23T04:28:48.804Z,1010.17
2018-07-23T04:29:48.804Z,1010.15
2018-07-23T04:30:48.800Z,1010.18
2018-07-23T04:31:48.830Z,1010.16
2018-07-23T04:32:53.569Z,1010.17
2018-07-23T04:33:48.792Z,1010.20
2018-07-23T04:34:48.804Z,1010.19
2018-07-23T04:35:48.794Z,1010.21
2018-07-23T04:36:48.782Z,1010.21
2018-07-23T04:37:48.831Z,1010.21
2018-07-23T04:38:48.785Z,1010.22
2018-07-23T04:39:48.777Z,1010.20
2018-07-23T04:40:48.779Z,1010.19
2018-07-23T04:41:48.776Z,1010.20
2018-07-23T04:42:48.790Z,1010.22
2018-07-23T04:43:48.771Z,1010.24
2018-07-23T04:44:48.767Z,1010.25
2018-07-23T04:45:48.774Z,1010.23
2018-07-23T04:46:48.765Z,1010.26
2018-07-23T04:47:48.764Z,1010.23
2018-07-23T04:48:48.756Z,1010.25
2018-07-23T04:49:48.777Z,1010.22
2018-07-23T04:50:48.752Z,1010.19
2018-07-23T04:51:48.770Z,1010.22
2018-07-23T04:52:48.750Z,1010.18
2018-07-23T04:53:48.744Z,1010.15
2018-07-23T04:54:48.750Z,1010.21
2018-07-23T04:55:48.747Z,1010.20
2018-07-23T04:56:48.819Z,1010.22
2018-07-23T04:57:48.744Z,1010.24
2018-07-23T04:58:48.734Z,1010.27
2018-07-23T04:59:48.769Z,1010.26
2018-07-23T05:00:48.733Z,1010.29
2018-07-23T05:01:48.732Z,1010.29
2018-07-23T05:02:48.732Z,1010.32
2018-07-23T05:03:48.746Z,1010.35
2018-07-23T05:04:48.728Z,1010.32
2018-07-23T05:05:48.814Z,1010.35
2018-07-23T05:06:48.736Z,1010.32
2018-07-23T05:07:48.716Z,1010.31
2018-07-23T05:08:48.752Z,1010.35
2018-07-23T05:09:48.714Z,1010.31
2018-07-23T05:10:48.718Z,1010.32
2018-07-23T05:11:48.711Z,1010.39
2018-07-23T05:12:48.707Z,1010.37
2018-07-23T05:13:48.713Z,1010.35
2018-07-23T05:14:48.724Z,1010.39
2018-07-23T05:15:48.702Z,1010.38
2018-07-23T05:16:48.719Z,1010.44
2018-07-23T05:17:48.694Z,1010.47
2018-07-23T05:18:48.697Z,1010.49
2018-07-23T05:19:48.689Z,1010.46
2018-07-23T05:20:48.694Z,1010.45
2018-07-23T05:21:48.692Z,1010.43
2018-07-23T05:22:48.690Z,1010.48
2018-07-23T05:23:48.721Z,1010.43
2018-07-23T05:24:48.688Z,1010.46
2018-07-23T05:25:48.682Z,1010.43
2018-07-23T05:26:48.680Z,1010.49
2018-07-23T05:27:48.684Z,1010.46
2018-07-23T05:28:48.678Z,1010.54
2018-07-23T05:29:48.680Z,1010.52
2018-07-23T05:30:48.676Z,1010.53
2018-07-23T05:31:48.715Z,1010.56
2018-07-23T05:32:48.672Z,1010.55
2018-07-23T05:33:48.679Z,1010.52
2018-07-23T05:34:48.672Z,1010.54
2018-07-23T05:35:48.671Z,1010.55
2018-07-23T05:36:48.675Z,1010.56
2018-07-23T05:37:48.673Z,1010.55
2018-07-23T05:38:48.673Z,1010.55
2018-07-23T05:39:48.674Z,1010.52
2018-07-23T05:40:48.666Z,1010.53
2018-07-23T05:41:48.667Z,1010.58
2018-07-23T05:42:48.674Z,1010.52
2018-07-23T05:43:48.675Z,1010.55
2018-07-23T05:44:48.668Z,1010.51
2018-07-23T05:45:48.682Z,1010.54
2018-07-23T05:46:48.673Z,1010.55
2018-07-23T05:47:48.674Z,1010.58
2018-07-23T05:48:48.672Z,1010.57
2018-07-23T05:49:48.679Z,1010.57
2018-07-23T05:50:48.675Z,1010.55
2018-07-23T05:51:48.674Z,1010.56
2018-07-23T05:52:48.674Z,1010.59
2018-07-23T05:53:48.675Z,1010.58
2018-07-23T05:54:48.675Z,1010.56
2018-07-23T05:55:48.678Z,1010.58
2018-07-23T05:56:48.680Z,1010.57
2018-07-23T05:57:51.344Z,1010.52
2018-07-23T05:58:48.737Z,1010.52
2018-07-23T05:59:48.686Z,1010.52
2018-07-23T06:00:48.681Z,1010.53
2018-07-23T06:01:48.682Z,1010.51
2018-07-23T06:02:48.686Z,1010.55
2018-07-23T06:03:48.692Z,1010.54
2018-07-23T06:04:48.691Z,1010.56
2018-07-23T06:05:48.691Z,1010.54
2018-07-23T06:06:48.751Z,1010.55
2018-07-23T06:07:48.697Z,1010.60
2018-07-23T06:08:48.694Z,1010.58
2018-07-23T06:09:48.701Z,1010.56
2018-07-23T06:10:48.702Z,1010.58
2018-07-23T06:11:48.700Z,1010.57
2018-07-23T06:12:48.708Z,1010.58
2018-07-23T06:13:48.709Z,1010.58
2018-07-23T06:14:48.720Z,1010.59
2018-07-23T06:15:56.860Z,1010.58
2018-07-23T06:17:42.808Z,1010.63
2018-07-23T06:18:42.430Z,1010.62
2018-07-23T06:20:36.148Z,1010.63
2018-07-23T06:21:36.025Z,1010.62
2018-07-23T06:23:29.919Z,1010.67
2018-07-23T06:24:29.724Z,1010.68
2018-07-23T06:26:23.682Z,1010.68
2018-07-23T06:27:23.466Z,1010.67
2018-07-23T06:29:17.096Z,1010.73
2018-07-23T06:30:17.168Z,1010.72
2018-07-23T06:32:10.789Z,1010.71
2018-07-23T06:33:10.705Z,1010.74
2018-07-23T06:34:10.756Z,1010.74
2018-07-23T06:35:10.707Z,1010.75
2018-07-23T06:36:10.689Z,1010.74
2018-07-23T06:37:10.714Z,1010.77
2018-07-23T06:38:10.727Z,1010.71
2018-07-23T06:39:11.035Z,1010.73
2018-07-23T06:40:12.287Z,1010.71
2018-07-23T06:41:10.710Z,1010.72
2018-07-23T06:42:10.713Z,1010.72
2018-07-23T06:43:10.738Z,1010.76
2018-07-23T06:44:10.729Z,1010.78
2018-07-23T06:45:10.727Z,1010.76
2018-07-23T06:46:10.740Z,1010.76
2018-07-23T06:47:10.735Z,1010.79
2018-07-23T06:48:10.737Z,1010.83
2018-07-23T06:49:10.747Z,1010.85
2018-07-23T06:50:10.752Z,1010.85
2018-07-23T06:51:10.752Z,1010.84
2018-07-23T06:52:10.778Z,1010.89
2018-07-23T06:53:10.773Z,1010.84
2018-07-23T06:54:10.839Z,1010.87
2018-07-23T06:55:10.773Z,1010.90
2018-07-23T06:56:10.783Z,1010.93
2018-07-23T06:57:10.780Z,1010.89
2018-07-23T06:58:10.789Z,1010.88
2018-07-23T06:59:12.084Z,1010.87
2018-07-23T07:00:10.801Z,1010.86
2018-07-23T07:01:10.815Z,1010.88
2018-07-23T07:02:10.810Z,1010.89
2018-07-23T07:03:10.857Z,1010.87
2018-07-23T07:04:10.820Z,1010.84
2018-07-23T07:05:10.826Z,1010.87
2018-07-23T07:06:10.833Z,1010.88
2018-07-23T07:07:10.845Z,1010.89
2018-07-23T07:08:10.835Z,1010.88
2018-07-23T07:09:10.849Z,1010.87
2018-07-23T07:10:10.854Z,1010.88
2018-07-23T07:11:10.859Z,1010.91
2018-07-23T07:12:10.865Z,1010.88
2018-07-23T07:13:10.869Z,1010.90
2018-07-23T07:14:10.876Z,1010.87
2018-07-23T07:15:10.879Z,1010.88
2018-07-23T07:16:10.886Z,1010.88
2018-07-23T07:17:10.891Z,1010.89
2018-07-23T07:18:10.894Z,1010.88
2018-07-23T07:19:10.899Z,1010.87
2018-07-23T07:20:10.908Z,1010.86
2018-07-23T07:21:10.915Z,1010.86
2018-07-23T07:22:10.923Z,1010.84
2018-07-23T07:23:10.926Z,1010.84
2018-07-23T07:24:10.929Z,1010.84
2018-07-23T07:25:10.939Z,1010.84
2018-07-23T07:26:10.947Z,1010.84
2018-07-23T07:27:10.952Z,1010.85
2018-07-23T07:28:10.959Z,1010.85
2018-07-23T07:29:10.970Z,1010.85
2018-07-23T07:30:10.991Z,1010.87
2018-07-23T07:31:10.978Z,1010.90
2018-07-23T07:32:10.984Z,1010.92
2018-07-23T07:33:10.988Z,1010.90
2018-07-23T07:34:11.006Z,1010.92
2018-07-23T07:35:11.003Z,1010.90
2018-07-23T07:36:11.010Z,1010.89
2018-07-23T07:37:11.016Z,1010.92
2018-07-23T07:38:15.346Z,1010.92
2018-07-23T07:39:11.042Z,1010.90
2018-07-23T07:40:11.036Z,1010.86
2018-07-23T07:41:11.049Z,1010.84
2018-07-23T07:42:11.046Z,1010.86
2018-07-23T07:43:11.055Z,1010.87
2018-07-23T07:44:11.065Z,1010.91
2018-07-23T07:45:11.069Z,1010.88
2018-07-23T07:46:11.073Z,1010.91
2018-07-23T07:47:11.091Z,1010.85
2018-07-23T07:48:11.097Z,1010.84
2018-07-23T07:49:11.110Z,1010.78
2018-07-23T07:50:11.106Z,1010.78
2018-07-23T07:51:11.129Z,1010.75
2018-07-23T07:52:11.118Z,1010.77
2018-07-23T07:53:11.132Z,1010.81
2018-07-23T07:54:11.135Z,1010.83
2018-07-23T07:55:11.144Z,1010.81
2018-07-23T07:56:11.165Z,1010.82
2018-07-23T07:57:11.169Z,1010.81
2018-07-23T07:58:11.165Z,1010.81
2018-07-23T07:59:11.214Z,1010.79
2018-07-23T08:00:11.180Z,1010.80
2018-07-23T08:01:11.185Z,1010.79
2018-07-23T08:02:11.197Z,1010.74
2018-07-23T08:03:11.207Z,1010.73
2018-07-23T08:04:11.209Z,1010.74
2018-07-23T08:05:11.220Z,1010.73
2018-07-23T08:06:11.223Z,1010.75
2018-07-23T08:07:11.298Z,1010.71
2018-07-23T08:08:11.240Z,1010.73
2018-07-23T08:09:11.258Z,1010.73
2018-07-23T08:10:11.269Z,1010.76
2018-07-23T08:11:11.275Z,1010.78
2018-07-23T08:12:11.277Z,1010.81
2018-07-23T08:13:11.495Z,1010.76
2018-07-23T08:14:11.993Z,1010.82
2018-07-23T08:15:11.301Z,1010.84
2018-07-23T08:16:11.306Z,1010.81
2018-07-23T08:17:11.321Z,1010.81
2018-07-23T08:18:11.335Z,1010.81
2018-07-23T08:19:11.338Z,1010.82
2018-07-23T08:20:11.355Z,1010.80
2018-07-23T08:21:11.355Z,1010.77
2018-07-23T08:22:11.360Z,1010.78
2018-07-23T08:23:11.395Z,1010.77
2018-07-23T08:24:11.376Z,1010.75
2018-07-23T08:25:11.417Z,1010.77
2018-07-23T08:26:11.395Z,1010.74
2018-07-23T08:27:11.411Z,1010.78
2018-07-23T08:28:11.413Z,1010.80
2018-07-23T08:29:11.417Z,1010.79
2018-07-23T08:30:11.426Z,1010.78
2018-07-23T08:31:11.438Z,1010.80
2018-07-23T08:32:11.614Z,1010.80
2018-07-23T08:33:11.455Z,1010.82
2018-07-23T08:34:11.474Z,1010.84
2018-07-23T08:35:11.475Z,1010.84
2018-07-23T08:36:11.487Z,1010.80
2018-07-23T08:37:11.553Z,1010.79
2018-07-23T08:38:11.502Z,1010.80
2018-07-23T08:39:11.518Z,1010.81
2018-07-23T08:40:11.519Z,1010.78
2018-07-23T08:41:11.538Z,1010.81
2018-07-23T08:42:11.586Z,1010.82
2018-07-23T08:43:11.624Z,1010.81
2018-07-23T08:44:11.560Z,1010.82
2018-07-23T08:45:11.574Z,1010.83
2018-07-23T08:46:11.603Z,1010.83
2018-07-23T08:47:11.591Z,1010.79
2018-07-23T08:48:11.601Z,1010.83
2018-07-23T08:49:11.611Z,1010.84
2018-07-23T08:50:11.625Z,1010.87
2018-07-23T08:51:11.653Z,1010.84
2018-07-23T08:52:11.639Z,1010.87
2018-07-23T08:53:11.651Z,1010.90
2018-07-23T08:54:11.660Z,1010.93
2018-07-23T08:55:11.673Z,1010.91
2018-07-23T08:56:11.695Z,1010.90
2018-07-23T08:57:11.712Z,1010.90
2018-07-23T08:58:11.706Z,1010.93
2018-07-23T08:59:11.721Z,1010.87
2018-07-23T09:00:11.722Z,1010.90
2018-07-23T09:01:11.735Z,1010.89
2018-07-23T09:02:11.746Z,1010.89
2018-07-23T09:03:11.753Z,1010.90
2018-07-23T09:04:11.762Z,1010.86
2018-07-23T09:05:11.774Z,1010.87
2018-07-23T09:06:11.783Z,1010.90
2018-07-23T09:07:11.794Z,1010.90
2018-07-23T09:08:11.809Z,1010.88
2018-07-23T09:09:11.817Z,1010.89
2018-07-23T09:10:11.831Z,1010.93
2018-07-23T09:11:11.861Z,1010.92
2018-07-23T09:12:11.853Z,1010.95
2018-07-23T09:13:11.864Z,1010.98
2018-07-23T09:14:11.878Z,1010.98
2018-07-23T09:15:11.885Z,1010.98
2018-07-23T09:16:11.909Z,1010.97
2018-07-23T09:17:11.952Z,1011.01
2018-07-23T09:18:11.919Z,1010.98
2018-07-23T09:19:14.591Z,1010.97
2018-07-23T09:20:11.946Z,1010.94
2018-07-23T09:21:11.951Z,1010.97
2018-07-23T09:22:12.071Z,1010.95
2018-07-23T09:23:11.981Z,1010.97
2018-07-23T09:24:11.989Z,1010.99
2018-07-23T09:25:12.011Z,1010.98
2018-07-23T09:26:12.014Z,1010.99
2018-07-23T09:27:12.027Z,1010.99
2018-07-23T09:28:12.050Z,1010.97
2018-07-23T09:29:12.055Z,1010.92
2018-07-23T09:30:12.120Z,1010.92
2018-07-23T09:31:12.076Z,1010.93
2018-07-23T09:32:12.086Z,1010.93
2018-07-23T09:33:12.107Z,1010.98
2018-07-23T09:34:12.107Z,1010.96
2018-07-23T09:35:12.122Z,1010.97
2018-07-23T09:36:12.127Z,1010.97
2018-07-23T09:37:12.232Z,1010.99
2018-07-23T09:38:12.160Z,1010.98
2018-07-23T09:39:12.166Z,1010.95
2018-07-23T09:40:12.176Z,1010.96
2018-07-23T09:41:12.188Z,1010.99
2018-07-23T09:42:14.101Z,1010.96
2018-07-23T09:43:12.211Z,1010.96
2018-07-23T09:44:12.226Z,1010.98
2018-07-23T09:45:12.239Z,1010.94
2018-07-23T09:46:12.246Z,1010.92
2018-07-23T09:47:12.276Z,1010.94
2018-07-23T09:48:12.296Z,1010.91
2018-07-23T09:49:12.280Z,1010.91
2018-07-23T09:50:12.298Z,1010.90
2018-07-23T09:51:12.314Z,1010.91
2018-07-23T09:52:12.322Z,1010.86
2018-07-23T09:53:12.336Z,1010.88
2018-07-23T09:54:12.348Z,1010.92
2018-07-23T09:55:12.356Z,1010.82
2018-07-23T09:56:12.370Z,1010.87
2018-07-23T09:57:12.387Z,1010.85
2018-07-23T09:58:12.392Z,1010.81
2018-07-23T09:59:12.421Z,1010.87
2018-07-23T10:00:12.428Z,1010.89
2018-07-23T10:01:12.432Z,1010.88
2018-07-23T10:02:12.457Z,1010.84
2018-07-23T10:03:12.538Z,1010.87
2018-07-23T10:04:12.466Z,1010.87
2018-07-23T10:05:12.484Z,1010.89
2018-07-23T10:06:12.490Z,1010.89
2018-07-23T10:07:12.543Z,1010.85
2018-07-23T10:08:12.516Z,1010.83
2018-07-23T10:09:12.533Z,1010.80
2018-07-23T10:10:12.560Z,1010.78
2018-07-23T10:11:12.581Z,1010.84
2018-07-23T10:12:12.574Z,1010.87
2018-07-23T10:13:12.593Z,1010.87
2018-07-23T10:14:12.598Z,1010.83
2018-07-23T10:15:12.621Z,1010.83
2018-07-23T10:16:12.621Z,1010.84
2018-07-23T10:17:12.632Z,1010.86
2018-07-23T10:18:12.642Z,1010.85
2018-07-23T10:19:12.656Z,1010.85
2018-07-23T10:20:12.691Z,1010.84
2018-07-23T10:21:12.681Z,1010.87
2018-07-23T10:22:12.750Z,1010.88
2018-07-23T10:23:12.707Z,1010.86
2018-07-23T10:24:12.719Z,1010.83
2018-07-23T10:25:12.752Z,1010.91
2018-07-23T10:26:12.775Z,1010.83
2018-07-23T10:27:12.758Z,1010.86
2018-07-23T10:28:12.773Z,1010.83
2018-07-23T10:29:12.787Z,1010.78
2018-07-23T10:30:12.795Z,1010.83
2018-07-23T10:31:12.812Z,1010.79
2018-07-23T10:32:12.819Z,1010.80
2018-07-23T10:33:12.835Z,1010.78
2018-07-23T10:34:12.852Z,1010.78
2018-07-23T10:35:12.890Z,1010.76
2018-07-23T10:36:12.881Z,1010.78
2018-07-23T10:37:12.894Z,1010.77
2018-07-23T10:38:12.922Z,1010.75
2018-07-23T10:39:12.927Z,1010.75
2018-07-23T10:40:12.933Z,1010.76
2018-07-23T10:41:12.994Z,1010.75
2018-07-23T10:42:15.523Z,1010.71
2018-07-23T10:43:12.968Z,1010.72
2018-07-23T10:44:13.005Z,1010.74
2018-07-23T10:45:12.998Z,1010.71
2018-07-23T10:46:13.017Z,1010.67
2018-07-23T10:47:13.024Z,1010.69
2018-07-23T10:48:13.037Z,1010.66
2018-07-23T10:49:13.090Z,1010.68
2018-07-23T10:50:13.072Z,1010.66
2018-07-23T10:51:13.082Z,1010.70
2018-07-23T10:52:13.090Z,1010.71
2018-07-23T10:53:13.108Z,1010.73
2018-07-23T10:54:13.117Z,1010.74
2018-07-23T10:55:13.141Z,1010.71
2018-07-23T10:56:13.140Z,1010.71
2018-07-23T10:57:13.209Z,1010.73
2018-07-23T10:58:13.171Z,1010.71
2018-07-23T10:59:13.212Z,1010.69
2018-07-23T11:00:13.203Z,1010.68
2018-07-23T11:01:13.211Z,1010.66
2018-07-23T11:02:13.224Z,1010.66
2018-07-23T11:03:13.243Z,1010.66
2018-07-23T11:04:13.282Z,1010.66
2018-07-23T11:05:13.268Z,1010.66
2018-07-23T11:06:13.285Z,1010.65
2018-07-23T11:07:13.342Z,1010.64
2018-07-23T11:08:13.309Z,1010.69
2018-07-23T11:09:13.329Z,1010.71
2018-07-23T11:10:13.340Z,1010.66
2018-07-23T11:11:13.349Z,1010.67
2018-07-23T11:12:13.380Z,1010.68
2018-07-23T11:13:13.377Z,1010.75
2018-07-23T11:14:13.392Z,1010.73
2018-07-23T11:15:13.407Z,1010.77
2018-07-23T11:16:13.423Z,1010.71
2018-07-23T11:17:13.435Z,1010.70
2018-07-23T11:18:13.448Z,1010.70
2018-07-23T11:19:13.504Z,1010.67
2018-07-23T11:20:13.481Z,1010.67
2018-07-23T11:21:13.490Z,1010.69
2018-07-23T11:22:13.504Z,1010.72
2018-07-23T11:23:13.515Z,1010.69
2018-07-23T11:24:13.542Z,1010.70
2018-07-23T11:25:38.702Z,1010.67
2018-07-23T11:26:13.560Z,1010.61
2018-07-23T11:27:13.573Z,1010.64
2018-07-23T11:28:13.584Z,1010.67
2018-07-23T11:29:13.603Z,1010.65
2018-07-23T11:30:13.615Z,1010.65
2018-07-23T11:31:13.633Z,1010.67
2018-07-23T11:32:13.648Z,1010.63
2018-07-23T11:33:13.657Z,1010.60
2018-07-23T11:34:13.680Z,1010.62
2018-07-23T11:35:13.685Z,1010.67
2018-07-23T11:36:13.697Z,1010.70
2018-07-23T11:37:13.713Z,1010.65
2018-07-23T11:38:13.724Z,1010.68
2018-07-23T11:39:13.737Z,1010.62
2018-07-23T11:40:13.754Z,1010.66
2018-07-23T11:41:13.765Z,1010.71
2018-07-23T11:42:13.775Z,1010.66
2018-07-23T11:43:13.800Z,1010.72
2018-07-23T11:44:13.808Z,1010.73
2018-07-23T11:45:13.865Z,1010.75
2018-07-23T11:46:24.449Z,1010.75
2018-07-23T11:47:13.913Z,1010.76
2018-07-23T11:48:13.862Z,1010.71
2018-07-23T11:49:13.873Z,1010.69
2018-07-23T11:50:13.889Z,1010.66
2018-07-23T11:51:13.907Z,1010.62
2018-07-23T11:52:14.363Z,1010.63
2018-07-23T11:53:13.953Z,1010.63
2018-07-23T11:54:13.944Z,1010.64
2018-07-23T11:55:13.952Z,1010.67
2018-07-23T11:56:14.007Z,1010.68
2018-07-23T11:57:13.987Z,1010.67
2018-07-23T11:58:13.996Z,1010.62
2018-07-23T11:59:14.010Z,1010.63
2018-07-23T12:00:14.023Z,1010.65
2018-07-23T12:01:14.036Z,1010.65
2018-07-23T12:02:14.050Z,1010.67
2018-07-23T12:03:14.064Z,1010.61
2018-07-23T12:04:14.089Z,1010.58
2018-07-23T12:05:14.092Z,1010.62
2018-07-23T12:06:14.105Z,1010.69
2018-07-23T12:07:14.119Z,1010.64
2018-07-23T12:08:14.138Z,1010.61
2018-07-23T12:09:14.145Z,1010.57
2018-07-23T12:10:14.157Z,1010.61
2018-07-23T12:11:14.170Z,1010.58